sensor_id;sensor_type;location;lat;lon;timestamp;pressure;altitude;pressure_sealevel;temperature;humidity
38267;BME280;24063;51.794;19.578;2022-10-22T00:00:07;98233.58;;;8.78;100.00
38267;BME280;24063;51.794;19.578;2022-10-22T00:01:29;98231.63;;;8.80;100.00
38267;BME280;24063;51.794;19.578;2022-10-22T00:02:30;98230.77;;;8.79;100.00
38267;BME280;24063;51.794;19.578;2022-10-22T00:03:33;98230.88;;;8.78;100.00
38267;BME280;24063;51.794;19.578;2022-10-22T00:04:35;98229.38;;;8.78;100.00
38267;BME280;24063;51.794;19.578;2022-10-22T00:05:36;98229.86;;;8.78;100.00
38267;BME280;24063;51.794;19.578;2022-10-22T00:06:38;98233.52;;;8.78;100.00
38267;BME280;24063;51.794;19.578;2022-10-22T00:07:40;98230.94;;;8.77;100.00
38267;BME280;24063;51.794;19.578;2022-10-22T00:08:42;98230.39;;;8.77;100.00
38267;BME280;24063;51.794;19.578;2022-10-22T00:09:44;98232.34;;;8.77;100.00
38267;BME280;24063;51.794;19.578;2022-10-22T00:10:46;98234.23;;;8.77;100.00
38267;BME280;24063;51.794;19.578;2022-10-22T00:11:48;98231.27;;;8.75;100.00
38267;BME280;24063;51.794;19.578;2022-10-22T00:12:50;98226.57;;;8.76;100.00
38267;BME280;24063;51.794;19.578;2022-10-22T00:13:51;98227.21;;;8.77;100.00
38267;BME280;24063;51.794;19.578;2022-10-22T00:14:53;98226.25;;;8.77;100.00
38267;BME280;24063;51.794;19.578;2022-10-22T00:15:55;98224.90;;;8.76;100.00
38267;BME280;24063;51.794;19.578;2022-10-22T00:16:57;98222.15;;;8.77;100.00
38267;BME280;24063;51.794;19.578;2022-10-22T00:18:01;98224.04;;;8.79;100.00
38267;BME280;24063;51.794;19.578;2022-10-22T00:19:03;98221.34;;;8.81;100.00
38267;BME280;24063;51.794;19.578;2022-10-22T00:20:05;98219.71;;;8.83;100.00
38267;BME280;24063;51.794;19.578;2022-10-22T00:21:07;98221.23;;;8.85;100.00
38267;BME280;24063;51.794;19.578;2022-10-22T00:22:10;98224.34;;;8.87;100.00
38267;BME280;24063;51.794;19.578;2022-10-22T00:23:12;98223.16;;;8.86;100.00
38267;BME280;24063;51.794;19.578;2022-10-22T00:24:14;98222.90;;;8.85;100.00
38267;BME280;24063;51.794;19.578;2022-10-22T00:25:16;98222.30;;;8.83;100.00
38267;BME280;24063;51.794;19.578;2022-10-22T00:26:18;98220.64;;;8.81;100.00
38267;BME280;24063;51.794;19.578;2022-10-22T00:27:19;98222.36;;;8.79;100.00
38267;BME280;24063;51.794;19.578;2022-10-22T00:28:22;98223.18;;;8.77;100.00
38267;BME280;24063;51.794;19.578;2022-10-22T00:29:24;98223.19;;;8.75;100.00
38267;BME280;24063;51.794;19.578;2022-10-22T00:30:26;98222.48;;;8.72;100.00
38267;BME280;24063;51.794;19.578;2022-10-22T00:31:27;98222.17;;;8.70;100.00
38267;BME280;24063;51.794;19.578;2022-10-22T00:32:29;98222.70;;;8.67;100.00
38267;BME280;24063;51.794;19.578;2022-10-22T00:33:31;98223.14;;;8.66;100.00
38267;BME280;24063;51.794;19.578;2022-10-22T00:34:33;98225.24;;;8.64;100.00
38267;BME280;24063;51.794;19.578;2022-10-22T00:35:35;98222.34;;;8.63;100.00
38267;BME280;24063;51.794;19.578;2022-10-22T00:36:36;98219.38;;;8.62;100.00
38267;BME280;24063;51.794;19.578;2022-10-22T00:37:38;98218.83;;;8.61;100.00
38267;BME280;24063;51.794;19.578;2022-10-22T00:38:41;98218.08;;;8.61;100.00
38267;BME280;24063;51.794;19.578;2022-10-22T00:39:43;98218.09;;;8.60;100.00
38267;BME280;24063;51.794;19.578;2022-10-22T00:40:45;98215.34;;;8.58;100.00
38267;BME280;24063;51.794;19.578;2022-10-22T00:41:48;98212.66;;;8.56;100.00
38267;BME280;24063;51.794;19.578;2022-10-22T00:42:50;98209.52;;;8.53;100.00
38267;BME280;24063;51.794;19.578;2022-10-22T00:44:03;98206.79;;;8.50;100.00
38267;BME280;24063;51.794;19.578;2022-10-22T00:46:10;98204.70;;;8.48;100.00
38267;BME280;24063;51.794;19.578;2022-10-22T00:47:13;98205.38;;;8.47;100.00
38267;BME280;24063;51.794;19.578;2022-10-22T00:48:21;98211.31;;;8.46;100.00
38267;BME280;24063;51.794;19.578;2022-10-22T00:49:23;98209.16;;;8.44;100.00
38267;BME280;24063;51.794;19.578;2022-10-22T00:50:49;98215.99;;;8.44;100.00
38267;BME280;24063;51.794;19.578;2022-10-22T00:51:53;98214.54;;;8.43;100.00
38267;BME280;24063;51.794;19.578;2022-10-22T00:52:56;98215.06;;;8.42;100.00
38267;BME280;24063;51.794;19.578;2022-10-22T00:54:03;98216.77;;;8.41;100.00
38267;BME280;24063;51.794;19.578;2022-10-22T00:55:08;98223.36;;;8.39;100.00
38267;BME280;24063;51.794;19.578;2022-10-22T00:56:11;98221.52;;;8.37;100.00
38267;BME280;24063;51.794;19.578;2022-10-22T00:57:14;98218.73;;;8.36;100.00
38267;BME280;24063;51.794;19.578;2022-10-22T00:58:17;98218.13;;;8.34;100.00
38267;BME280;24063;51.794;19.578;2022-10-22T00:59:21;98217.54;;;8.32;100.00
38267;BME280;24063;51.794;19.578;2022-10-22T01:00:24;98219.54;;;8.30;100.00
38267;BME280;24063;51.794;19.578;2022-10-22T01:01:28;98221.86;;;8.28;100.00
38267;BME280;24063;51.794;19.578;2022-10-22T01:02:30;98221.36;;;8.27;100.00
38267;BME280;24063;51.794;19.578;2022-10-22T01:03:32;98222.44;;;8.27;100.00
38267;BME280;24063;51.794;19.578;2022-10-22T01:04:34;98226.20;;;8.26;100.00
38267;BME280;24063;51.794;19.578;2022-10-22T01:05:42;98230.14;;;8.25;100.00
38267;BME280;24063;51.794;19.578;2022-10-22T01:06:44;98232.45;;;8.25;100.00
38267;BME280;24063;51.794;19.578;2022-10-22T01:07:51;98233.70;;;8.24;100.00
38267;BME280;24063;51.794;19.578;2022-10-22T01:11:59;98210.96;;;8.21;100.00
38267;BME280;24063;51.794;19.578;2022-10-22T01:13:21;98199.65;;;8.21;100.00
38267;BME280;24063;51.794;19.578;2022-10-22T01:14:51;98197.73;;;8.21;100.00
38267;BME280;24063;51.794;19.578;2022-10-22T01:16:09;98197.79;;;8.21;100.00
38267;BME280;24063;51.794;19.578;2022-10-22T01:17:35;98202.68;;;8.22;100.00
38267;BME280;24063;51.794;19.578;2022-10-22T01:22:33;98192.88;;;8.24;100.00
38267;BME280;24063;51.794;19.578;2022-10-22T01:27:09;98195.35;;;8.27;100.00
38267;BME280;24063;51.794;19.578;2022-10-22T01:29:47;98203.69;;;8.27;100.00
38267;BME280;24063;51.794;19.578;2022-10-22T01:30:53;98199.98;;;8.29;100.00
38267;BME280;24063;51.794;19.578;2022-10-22T01:32:00;98198.20;;;8.29;100.00
38267;BME280;24063;51.794;19.578;2022-10-22T01:33:07;98203.22;;;8.29;100.00
38267;BME280;24063;51.794;19.578;2022-10-22T01:34:14;98208.86;;;8.29;100.00
38267;BME280;24063;51.794;19.578;2022-10-22T01:35:24;98206.99;;;8.30;100.00
38267;BME280;24063;51.794;19.578;2022-10-22T01:36:31;98201.71;;;8.29;100.00
38267;BME280;24063;51.794;19.578;2022-10-22T01:37:38;98202.62;;;8.29;100.00
38267;BME280;24063;51.794;19.578;2022-10-22T01:38:45;98202.03;;;8.30;100.00
38267;BME280;24063;51.794;19.578;2022-10-22T01:39:49;98197.99;;;8.28;100.00
38267;BME280;24063;51.794;19.578;2022-10-22T01:40:53;98195.50;;;8.29;100.00
38267;BME280;24063;51.794;19.578;2022-10-22T01:41:56;98192.72;;;8.28;100.00
38267;BME280;24063;51.794;19.578;2022-10-22T01:43:04;98196.59;;;8.29;100.00
38267;BME280;24063;51.794;19.578;2022-10-22T01:44:06;98192.73;;;8.28;100.00
38267;BME280;24063;51.794;19.578;2022-10-22T01:45:14;98194.71;;;8.28;100.00
38267;BME280;24063;51.794;19.578;2022-10-22T01:46:21;98197.02;;;8.29;100.00
38267;BME280;24063;51.794;19.578;2022-10-22T01:47:38;98193.47;;;8.28;100.00
38267;BME280;24063;51.794;19.578;2022-10-22T01:49:26;98195.25;;;8.28;100.00
38267;BME280;24063;51.794;19.578;2022-10-22T01:52:26;98183.84;;;8.30;100.00
38267;BME280;24063;51.794;19.578;2022-10-22T01:53:48;98187.02;;;8.30;100.00
38267;BME280;24063;51.794;19.578;2022-10-22T01:55:18;98183.29;;;8.29;100.00
38267;BME280;24063;51.794;19.578;2022-10-22T01:57:54;98176.49;;;8.28;100.00
38267;BME280;24063;51.794;19.578;2022-10-22T01:59:16;98175.09;;;8.28;100.00
38267;BME280;24063;51.794;19.578;2022-10-22T02:00:23;98176.23;;;8.28;100.00
38267;BME280;24063;51.794;19.578;2022-10-22T02:03:08;98175.05;;;8.28;100.00
38267;BME280;24063;51.794;19.578;2022-10-22T02:04:34;98174.41;;;8.28;100.00
38267;BME280;24063;51.794;19.578;2022-10-22T02:05:48;98176.56;;;8.28;100.00
38267;BME280;24063;51.794;19.578;2022-10-22T02:06:57;98176.51;;;8.30;100.00
38267;BME280;24063;51.794;19.578;2022-10-22T02:08:13;98173.59;;;8.31;100.00
38267;BME280;24063;51.794;19.578;2022-10-22T02:09:19;98176.55;;;8.31;100.00
38267;BME280;24063;51.794;19.578;2022-10-22T02:10:23;98179.63;;;8.32;100.00
38267;BME280;24063;51.794;19.578;2022-10-22T02:11:26;98178.13;;;8.31;100.00
38267;BME280;24063;51.794;19.578;2022-10-22T02:12:31;98178.06;;;8.32;100.00
38267;BME280;24063;51.794;19.578;2022-10-22T02:13:40;98175.42;;;8.32;100.00
38267;BME280;24063;51.794;19.578;2022-10-22T02:14:45;98166.81;;;8.32;100.00
38267;BME280;24063;51.794;19.578;2022-10-22T02:15:51;98166.36;;;8.31;100.00
38267;BME280;24063;51.794;19.578;2022-10-22T02:16:56;98165.84;;;8.31;100.00
38267;BME280;24063;51.794;19.578;2022-10-22T02:17:59;98163.69;;;8.31;100.00
38267;BME280;24063;51.794;19.578;2022-10-22T02:19:11;98163.25;;;8.32;100.00
38267;BME280;24063;51.794;19.578;2022-10-22T02:20:26;98161.90;;;8.32;100.00
38267;BME280;24063;51.794;19.578;2022-10-22T02:21:29;98159.60;;;8.33;100.00
38267;BME280;24063;51.794;19.578;2022-10-22T02:22:33;98160.88;;;8.33;100.00
38267;BME280;24063;51.794;19.578;2022-10-22T02:23:35;98162.02;;;8.32;100.00
38267;BME280;24063;51.794;19.578;2022-10-22T02:24:37;98164.01;;;8.32;100.00
38267;BME280;24063;51.794;19.578;2022-10-22T02:25:41;98166.86;;;8.33;100.00
38267;BME280;24063;51.794;19.578;2022-10-22T02:28:28;98161.25;;;8.35;100.00
38267;BME280;24063;51.794;19.578;2022-10-22T02:29:46;98157.88;;;8.35;100.00
38267;BME280;24063;51.794;19.578;2022-10-22T02:30:55;98149.13;;;8.36;100.00
38267;BME280;24063;51.794;19.578;2022-10-22T02:32:01;98150.32;;;8.36;100.00
38267;BME280;24063;51.794;19.578;2022-10-22T02:33:15;98148.06;;;8.37;100.00
38267;BME280;24063;51.794;19.578;2022-10-22T02:34:26;98150.00;;;8.39;100.00
38267;BME280;24063;51.794;19.578;2022-10-22T02:35:31;98149.61;;;8.41;100.00
38267;BME280;24063;51.794;19.578;2022-10-22T02:36:34;98152.70;;;8.43;100.00
38267;BME280;24063;51.794;19.578;2022-10-22T02:37:37;98151.77;;;8.42;100.00
38267;BME280;24063;51.794;19.578;2022-10-22T02:38:41;98147.05;;;8.42;100.00
38267;BME280;24063;51.794;19.578;2022-10-22T02:39:44;98145.27;;;8.42;100.00
38267;BME280;24063;51.794;19.578;2022-10-22T02:40:46;98143.10;;;8.41;100.00
38267;BME280;24063;51.794;19.578;2022-10-22T02:41:47;98145.14;;;8.41;100.00
38267;BME280;24063;51.794;19.578;2022-10-22T02:42:50;98146.01;;;8.40;100.00
38267;BME280;24063;51.794;19.578;2022-10-22T02:43:55;98149.34;;;8.40;100.00
38267;BME280;24063;51.794;19.578;2022-10-22T02:44:57;98150.21;;;8.40;100.00
38267;BME280;24063;51.794;19.578;2022-10-22T02:45:58;98153.44;;;8.40;100.00
38267;BME280;24063;51.794;19.578;2022-10-22T02:47:00;98150.09;;;8.40;100.00
38267;BME280;24063;51.794;19.578;2022-10-22T02:48:02;98154.14;;;8.40;100.00
38267;BME280;24063;51.794;19.578;2022-10-22T02:49:04;98156.02;;;8.41;100.00
38267;BME280;24063;51.794;19.578;2022-10-22T02:50:06;98160.23;;;8.41;100.00
38267;BME280;24063;51.794;19.578;2022-10-22T02:51:11;98163.89;;;8.40;100.00
38267;BME280;24063;51.794;19.578;2022-10-22T02:52:12;98171.21;;;8.40;100.00
38267;BME280;24063;51.794;19.578;2022-10-22T02:53:14;98174.84;;;8.39;100.00
38267;BME280;24063;51.794;19.578;2022-10-22T02:54:16;98184.67;;;8.37;100.00
38267;BME280;24063;51.794;19.578;2022-10-22T02:55:18;98195.84;;;8.35;100.00
38267;BME280;24063;51.794;19.578;2022-10-22T02:56:20;98204.61;;;8.32;100.00
38267;BME280;24063;51.794;19.578;2022-10-22T02:57:22;98207.64;;;8.30;100.00
38267;BME280;24063;51.794;19.578;2022-10-22T02:58:24;98204.57;;;8.28;100.00
38267;BME280;24063;51.794;19.578;2022-10-22T02:59:26;98208.86;;;8.28;100.00
38267;BME280;24063;51.794;19.578;2022-10-22T03:00:28;98200.79;;;8.26;100.00
38267;BME280;24063;51.794;19.578;2022-10-22T03:01:30;98196.42;;;8.25;100.00
38267;BME280;24063;51.794;19.578;2022-10-22T03:02:31;98194.77;;;8.24;100.00
38267;BME280;24063;51.794;19.578;2022-10-22T03:03:33;98200.25;;;8.23;100.00
38267;BME280;24063;51.794;19.578;2022-10-22T03:04:35;98200.20;;;8.23;100.00
38267;BME280;24063;51.794;19.578;2022-10-22T03:05:36;98200.09;;;8.22;100.00
38267;BME280;24063;51.794;19.578;2022-10-22T03:06:38;98189.21;;;8.22;100.00
38267;BME280;24063;51.794;19.578;2022-10-22T03:07:44;98182.50;;;8.21;100.00
38267;BME280;24063;51.794;19.578;2022-10-22T03:08:45;98183.71;;;8.23;100.00
38267;BME280;24063;51.794;19.578;2022-10-22T03:09:47;98186.58;;;8.23;100.00
38267;BME280;24063;51.794;19.578;2022-10-22T03:10:49;98186.63;;;8.24;100.00
38267;BME280;24063;51.794;19.578;2022-10-22T03:11:51;98193.57;;;8.24;100.00
38267;BME280;24063;51.794;19.578;2022-10-22T03:12:52;98188.40;;;8.24;100.00
38267;BME280;24063;51.794;19.578;2022-10-22T03:13:54;98183.34;;;8.24;100.00
38267;BME280;24063;51.794;19.578;2022-10-22T03:14:56;98180.01;;;8.24;100.00
38267;BME280;24063;51.794;19.578;2022-10-22T03:15:58;98174.73;;;8.25;100.00
38267;BME280;24063;51.794;19.578;2022-10-22T03:17:00;98167.99;;;8.24;100.00
38267;BME280;24063;51.794;19.578;2022-10-22T03:18:02;98168.38;;;8.25;100.00
38267;BME280;24063;51.794;19.578;2022-10-22T03:19:03;98164.98;;;8.25;100.00
38267;BME280;24063;51.794;19.578;2022-10-22T03:20:05;98164.13;;;8.25;100.00
38267;BME280;24063;51.794;19.578;2022-10-22T03:22:31;98162.94;;;8.25;100.00
38267;BME280;24063;51.794;19.578;2022-10-22T03:23:36;98164.23;;;8.26;100.00
38267;BME280;24063;51.794;19.578;2022-10-22T03:24:42;98163.46;;;8.26;100.00
38267;BME280;24063;51.794;19.578;2022-10-22T03:25:47;98168.43;;;8.27;100.00
38267;BME280;24063;51.794;19.578;2022-10-22T03:26:51;98163.25;;;8.28;100.00
38267;BME280;24063;51.794;19.578;2022-10-22T03:28:02;98160.55;;;8.28;100.00
38267;BME280;24063;51.794;19.578;2022-10-22T03:29:05;98166.76;;;8.27;100.00
38267;BME280;24063;51.794;19.578;2022-10-22T03:30:09;98169.29;;;8.27;100.00
38267;BME280;24063;51.794;19.578;2022-10-22T03:31:11;98170.63;;;8.27;100.00
38267;BME280;24063;51.794;19.578;2022-10-22T03:32:12;98166.80;;;8.28;100.00
38267;BME280;24063;51.794;19.578;2022-10-22T03:33:14;98158.41;;;8.28;100.00
38267;BME280;24063;51.794;19.578;2022-10-22T03:34:16;98156.95;;;8.29;100.00
38267;BME280;24063;51.794;19.578;2022-10-22T03:35:18;98148.83;;;8.30;100.00
38267;BME280;24063;51.794;19.578;2022-10-22T03:36:19;98143.17;;;8.30;100.00
38267;BME280;24063;51.794;19.578;2022-10-22T03:37:23;98143.86;;;8.32;100.00
38267;BME280;24063;51.794;19.578;2022-10-22T03:38:25;98147.52;;;8.32;100.00
38267;BME280;24063;51.794;19.578;2022-10-22T03:39:31;98142.57;;;8.33;100.00
38267;BME280;24063;51.794;19.578;2022-10-22T03:40:34;98143.83;;;8.33;100.00
38267;BME280;24063;51.794;19.578;2022-10-22T03:41:35;98143.65;;;8.33;100.00
38267;BME280;24063;51.794;19.578;2022-10-22T03:42:39;98144.83;;;8.33;100.00
38267;BME280;24063;51.794;19.578;2022-10-22T03:43:41;98139.55;;;8.33;100.00
38267;BME280;24063;51.794;19.578;2022-10-22T03:44:43;98134.83;;;8.29;100.00
38267;BME280;24063;51.794;19.578;2022-10-22T03:45:45;98138.64;;;8.32;100.00
38267;BME280;24063;51.794;19.578;2022-10-22T03:46:47;98137.89;;;8.32;100.00
38267;BME280;24063;51.794;19.578;2022-10-22T03:47:49;98137.73;;;8.33;100.00
38267;BME280;24063;51.794;19.578;2022-10-22T03:48:51;98132.83;;;8.34;100.00
38267;BME280;24063;51.794;19.578;2022-10-22T03:49:52;98132.45;;;8.34;100.00
38267;BME280;24063;51.794;19.578;2022-10-22T03:50:54;98131.55;;;8.34;100.00
38267;BME280;24063;51.794;19.578;2022-10-22T03:51:56;98138.41;;;8.35;100.00
38267;BME280;24063;51.794;19.578;2022-10-22T03:52:57;98137.88;;;8.36;100.00
38267;BME280;24063;51.794;19.578;2022-10-22T03:54:00;98144.30;;;8.38;100.00
38267;BME280;24063;51.794;19.578;2022-10-22T03:55:02;98147.09;;;8.38;100.00
38267;BME280;24063;51.794;19.578;2022-10-22T03:56:08;98146.71;;;8.39;100.00
38267;BME280;24063;51.794;19.578;2022-10-22T03:57:10;98153.02;;;8.39;100.00
38267;BME280;24063;51.794;19.578;2022-10-22T03:58:12;98152.00;;;8.39;100.00
38267;BME280;24063;51.794;19.578;2022-10-22T03:59:14;98148.60;;;8.38;100.00
38267;BME280;24063;51.794;19.578;2022-10-22T04:00:16;98142.02;;;8.37;100.00
38267;BME280;24063;51.794;19.578;2022-10-22T04:01:18;98143.06;;;8.37;100.00
38267;BME280;24063;51.794;19.578;2022-10-22T04:02:19;98146.48;;;8.38;100.00
38267;BME280;24063;51.794;19.578;2022-10-22T04:03:22;98147.90;;;8.39;100.00
38267;BME280;24063;51.794;19.578;2022-10-22T04:04:23;98148.10;;;8.40;100.00
38267;BME280;24063;51.794;19.578;2022-10-22T04:05:25;98150.73;;;8.41;100.00
38267;BME280;24063;51.794;19.578;2022-10-22T04:06:28;98146.88;;;8.41;100.00
38267;BME280;24063;51.794;19.578;2022-10-22T04:07:30;98143.88;;;8.42;100.00
38267;BME280;24063;51.794;19.578;2022-10-22T04:08:33;98142.52;;;8.44;100.00
38267;BME280;24063;51.794;19.578;2022-10-22T04:09:35;98151.63;;;8.45;100.00
38267;BME280;24063;51.794;19.578;2022-10-22T04:10:36;98147.38;;;8.47;100.00
38267;BME280;24063;51.794;19.578;2022-10-22T04:11:38;98151.04;;;8.47;100.00
38267;BME280;24063;51.794;19.578;2022-10-22T04:12:40;98152.92;;;8.47;100.00
38267;BME280;24063;51.794;19.578;2022-10-22T04:13:42;98150.83;;;8.46;100.00
38267;BME280;24063;51.794;19.578;2022-10-22T04:14:44;98155.78;;;8.46;100.00
38267;BME280;24063;51.794;19.578;2022-10-22T04:15:46;98160.02;;;8.45;100.00
38267;BME280;24063;51.794;19.578;2022-10-22T04:16:48;98159.01;;;8.45;100.00
38267;BME280;24063;51.794;19.578;2022-10-22T04:17:50;98164.83;;;8.44;100.00
38267;BME280;24063;51.794;19.578;2022-10-22T04:18:51;98163.48;;;8.44;100.00
38267;BME280;24063;51.794;19.578;2022-10-22T04:19:53;98165.70;;;8.43;100.00
38267;BME280;24063;51.794;19.578;2022-10-22T04:20:55;98163.08;;;8.42;100.00
38267;BME280;24063;51.794;19.578;2022-10-22T04:21:57;98162.27;;;8.41;100.00
38267;BME280;24063;51.794;19.578;2022-10-22T04:22:59;98159.36;;;8.41;100.00
38267;BME280;24063;51.794;19.578;2022-10-22T04:24:01;98156.20;;;8.40;100.00
38267;BME280;24063;51.794;19.578;2022-10-22T04:25:04;98155.05;;;8.40;100.00
38267;BME280;24063;51.794;19.578;2022-10-22T04:26:06;98156.77;;;8.40;100.00
38267;BME280;24063;51.794;19.578;2022-10-22T04:27:08;98152.73;;;8.40;100.00
38267;BME280;24063;51.794;19.578;2022-10-22T04:28:10;98155.77;;;8.39;100.00
38267;BME280;24063;51.794;19.578;2022-10-22T04:29:12;98157.59;;;8.39;100.00
38267;BME280;24063;51.794;19.578;2022-10-22T04:30:17;98152.75;;;8.39;100.00
38267;BME280;24063;51.794;19.578;2022-10-22T04:31:22;98150.43;;;8.39;100.00
38267;BME280;24063;51.794;19.578;2022-10-22T04:32:25;98150.64;;;8.39;100.00
38267;BME280;24063;51.794;19.578;2022-10-22T04:33:27;98153.02;;;8.39;100.00
38267;BME280;24063;51.794;19.578;2022-10-22T04:34:29;98156.68;;;8.39;100.00
38267;BME280;24063;51.794;19.578;2022-10-22T04:35:31;98153.27;;;8.38;100.00
38267;BME280;24063;51.794;19.578;2022-10-22T04:36:33;98154.04;;;8.37;100.00
38267;BME280;24063;51.794;19.578;2022-10-22T04:37:35;98148.81;;;8.37;100.00
38267;BME280;24063;51.794;19.578;2022-10-22T04:38:37;98151.94;;;8.37;100.00
38267;BME280;24063;51.794;19.578;2022-10-22T04:39:39;98150.59;;;8.37;100.00
38267;BME280;24063;51.794;19.578;2022-10-22T04:40:41;98143.33;;;8.36;100.00
38267;BME280;24063;51.794;19.578;2022-10-22T04:41:43;98145.86;;;8.38;100.00
38267;BME280;24063;51.794;19.578;2022-10-22T04:42:45;98143.64;;;8.39;100.00
38267;BME280;24063;51.794;19.578;2022-10-22T04:43:47;98138.79;;;8.38;100.00
38267;BME280;24063;51.794;19.578;2022-10-22T04:44:49;98140.23;;;8.41;100.00
38267;BME280;24063;51.794;19.578;2022-10-22T04:45:50;98142.02;;;8.41;100.00
38267;BME280;24063;51.794;19.578;2022-10-22T04:46:52;98139.06;;;8.41;100.00
38267;BME280;24063;51.794;19.578;2022-10-22T04:47:54;98137.77;;;8.41;100.00
38267;BME280;24063;51.794;19.578;2022-10-22T04:48:56;98142.25;;;8.42;100.00
38267;BME280;24063;51.794;19.578;2022-10-22T04:49:57;98144.42;;;8.42;100.00
38267;BME280;24063;51.794;19.578;2022-10-22T04:50:59;98149.21;;;8.44;100.00
38267;BME280;24063;51.794;19.578;2022-10-22T04:52:01;98146.34;;;8.45;100.00
38267;BME280;24063;51.794;19.578;2022-10-22T04:53:03;98144.73;;;8.46;100.00
38267;BME280;24063;51.794;19.578;2022-10-22T04:54:04;98143.75;;;8.47;100.00
38267;BME280;24063;51.794;19.578;2022-10-22T04:55:06;98140.10;;;8.47;100.00
38267;BME280;24063;51.794;19.578;2022-10-22T04:57:21;98133.97;;;8.47;100.00
38267;BME280;24063;51.794;19.578;2022-10-22T04:58:23;98137.79;;;8.48;100.00
38267;BME280;24063;51.794;19.578;2022-10-22T04:59:24;98137.67;;;8.48;100.00
38267;BME280;24063;51.794;19.578;2022-10-22T05:00:26;98134.88;;;8.49;100.00
38267;BME280;24063;51.794;19.578;2022-10-22T05:01:48;98134.23;;;8.50;100.00
38267;BME280;24063;51.794;19.578;2022-10-22T05:02:50;98138.41;;;8.50;100.00
38267;BME280;24063;51.794;19.578;2022-10-22T05:03:55;98134.98;;;8.51;100.00
38267;BME280;24063;51.794;19.578;2022-10-22T05:04:56;98138.64;;;8.52;100.00
38267;BME280;24063;51.794;19.578;2022-10-22T05:06:01;98135.56;;;8.53;100.00
38267;BME280;24063;51.794;19.578;2022-10-22T05:07:03;98136.20;;;8.55;100.00
38267;BME280;24063;51.794;19.578;2022-10-22T05:08:04;98136.16;;;8.57;100.00
38267;BME280;24063;51.794;19.578;2022-10-22T05:09:13;98131.61;;;8.58;100.00
38267;BME280;24063;51.794;19.578;2022-10-22T05:10:15;98131.07;;;8.60;100.00
38267;BME280;24063;51.794;19.578;2022-10-22T05:11:23;98133.01;;;8.60;100.00
38267;BME280;24063;51.794;19.578;2022-10-22T05:12:25;98133.39;;;8.59;100.00
38267;BME280;24063;51.794;19.578;2022-10-22T05:13:27;98135.77;;;8.58;100.00
38267;BME280;24063;51.794;19.578;2022-10-22T05:14:29;98134.79;;;8.59;100.00
38267;BME280;24063;51.794;19.578;2022-10-22T05:15:32;98136.68;;;8.60;100.00
38267;BME280;24063;51.794;19.578;2022-10-22T05:16:34;98132.58;;;8.59;100.00
38267;BME280;24063;51.794;19.578;2022-10-22T05:17:36;98133.40;;;8.59;100.00
38267;BME280;24063;51.794;19.578;2022-10-22T05:18:41;98131.08;;;8.59;100.00
38267;BME280;24063;51.794;19.578;2022-10-22T05:19:43;98129.89;;;8.58;100.00
38267;BME280;24063;51.794;19.578;2022-10-22T05:20:45;98126.92;;;8.59;100.00
38267;BME280;24063;51.794;19.578;2022-10-22T05:21:47;98122.06;;;8.60;100.00
38267;BME280;24063;51.794;19.578;2022-10-22T05:22:49;98124.88;;;8.61;100.00
38267;BME280;24063;51.794;19.578;2022-10-22T05:23:51;98129.17;;;8.61;100.00
38267;BME280;24063;51.794;19.578;2022-10-22T05:24:53;98137.59;;;8.61;100.00
38267;BME280;24063;51.794;19.578;2022-10-22T05:25:55;98135.48;;;8.61;100.00
38267;BME280;24063;51.794;19.578;2022-10-22T05:26:58;98142.92;;;8.61;100.00
38267;BME280;24063;51.794;19.578;2022-10-22T05:28:00;98145.56;;;8.62;100.00
38267;BME280;24063;51.794;19.578;2022-10-22T05:29:02;98144.34;;;8.62;100.00
38267;BME280;24063;51.794;19.578;2022-10-22T05:30:04;98143.52;;;8.60;100.00
38267;BME280;24063;51.794;19.578;2022-10-22T05:31:08;98136.09;;;8.60;100.00
38267;BME280;24063;51.794;19.578;2022-10-22T05:32:10;98130.77;;;8.58;100.00
38267;BME280;24063;51.794;19.578;2022-10-22T05:33:12;98133.88;;;8.59;100.00
38267;BME280;24063;51.794;19.578;2022-10-22T05:34:14;98140.55;;;8.59;100.00
38267;BME280;24063;51.794;19.578;2022-10-22T05:35:16;98144.60;;;8.58;100.00
38267;BME280;24063;51.794;19.578;2022-10-22T05:36:20;98139.27;;;8.59;100.00
38267;BME280;24063;51.794;19.578;2022-10-22T05:37:22;98137.11;;;8.60;100.00
38267;BME280;24063;51.794;19.578;2022-10-22T05:38:24;98133.27;;;8.61;100.00
38267;BME280;24063;51.794;19.578;2022-10-22T05:39:26;98131.66;;;8.62;100.00
38267;BME280;24063;51.794;19.578;2022-10-22T05:40:28;98133.55;;;8.64;100.00
38267;BME280;24063;51.794;19.578;2022-10-22T05:41:33;98135.86;;;8.65;100.00
38267;BME280;24063;51.794;19.578;2022-10-22T05:42:38;98136.81;;;8.66;100.00
38267;BME280;24063;51.794;19.578;2022-10-22T05:43:40;98140.48;;;8.66;100.00
38267;BME280;24063;51.794;19.578;2022-10-22T05:44:42;98149.38;;;8.69;100.00
38267;BME280;24063;51.794;19.578;2022-10-22T05:45:44;98156.48;;;8.69;100.00
38267;BME280;24063;51.794;19.578;2022-10-22T05:46:45;98159.38;;;8.70;100.00
38267;BME280;24063;51.794;19.578;2022-10-22T05:47:47;98155.50;;;8.71;100.00
38267;BME280;24063;51.794;19.578;2022-10-22T05:48:54;98154.21;;;8.70;100.00
38267;BME280;24063;51.794;19.578;2022-10-22T05:49:56;98152.77;;;8.70;100.00
38267;BME280;24063;51.794;19.578;2022-10-22T05:51:03;98151.73;;;8.70;100.00
38267;BME280;24063;51.794;19.578;2022-10-22T05:52:06;98159.02;;;8.69;100.00
38267;BME280;24063;51.794;19.578;2022-10-22T05:53:08;98158.85;;;8.69;100.00
38267;BME280;24063;51.794;19.578;2022-10-22T05:54:18;98159.98;;;8.70;100.00
38267;BME280;24063;51.794;19.578;2022-10-22T05:55:20;98156.05;;;8.71;100.00
38267;BME280;24063;51.794;19.578;2022-10-22T05:56:22;98156.09;;;8.73;100.00
38267;BME280;24063;51.794;19.578;2022-10-22T05:57:25;98157.82;;;8.73;100.00